Terminal Aerodrome Forecast
Issued by NWS

Current Version | Previous Version | Text Only | Print | Product List | Glossary On
Versions: 1 2 3 4 5 6 7 8 9 10 11 12 13 14 15 16 17 18 19 20 21
000
FTUS44 KLZK 271100
TAFLLQ
TAF
KLLQ 271132Z 2712/2812 16007KT P6SM -RA VCTS SCT030CB SCT100 BKN250
      TEMPO 2712/2716 VRB10G25KT 5SM -TSRA BKN040CB OVC100
     FM271600 19007KT P6SM VCTS SCT030CB BKN100 OVC250
     FM280100 17006KT P6SM VCSH SCT030 BKN100 OVC250=

USA.gov is the U.S. government's official web portal to all federal, state and local government web resources and services.